Time,TemperatureF,DewpointF,PressureIn,WindDirection,WindDirectionDegrees,WindSpeedMPH,WindSpeedGustMPH,Humidity,HourlyPrecipIn,Conditions,Clouds,dailyrainin,SoftwareType,DateUTC
2013-01-16 00:04:00,40.2,16.0,30.55,SE,132,2.0,3.0,38,0.00,,,0.01,weatherlink.com 1.10,2013-01-16 08:04:00,
2013-01-16 00:19:00,40.6,16.0,30.55,SSE,156,1.0,5.0,37,0.00,,,0.01,weatherlink.com 1.10,2013-01-16 08:19:00,
2013-01-16 00:34:00,40.4,18.0,30.55,ESE,111,3.0,7.0,40,0.00,,,0.00,weatherlink.com 1.10,2013-01-16 08:34:00,
2013-01-16 00:49:00,39.5,17.0,30.55,SE,138,1.0,5.0,41,0.00,,,0.00,weatherlink.com 1.10,2013-01-16 08:49:00,
2013-01-16 01:04:00,38.8,17.0,30.55,ESE,105,1.0,4.0,41,0.00,,,0.00,weatherlink.com 1.10,2013-01-16 09:04:00,
2013-01-16 01:19:00,38.2,17.0,30.55,SE,134,0.0,3.0,42,0.00,,,0.00,weatherlink.com 1.10,2013-01-16 09:19:00,
2013-01-16 01:34:00,37.9,17.0,30.55,SE,143,0.0,4.0,42,0.00,,,0.00,weatherlink.com 1.10,2013-01-16 09:34:00,
2013-01-16 01:49:00,37.5,17.0,30.55,ESE,115,3.0,4.0,43,0.00,,,0.00,weatherlink.com 1.10,2013-01-16 09:49:00,
2013-01-16 02:04:00,37.2,16.0,30.55,SE,139,1.0,4.0,42,0.00,,,0.00,weatherlink.com 1.10,2013-01-16 10:04:00,
2013-01-16 02:19:00,36.7,16.0,30.56,SE,130,2.0,6.0,43,0.00,,,0.00,weatherlink.com 1.10,2013-01-16 10:19:00,
2013-01-16 02:34:00,37.1,16.0,30.56,SE,139,2.0,7.0,43,0.00,,,0.00,weatherlink.com 1.10,2013-01-16 10:34:00,
2013-01-16 02:49:00,37.0,16.0,30.56,SSE,160,2.0,6.0,43,0.00,,,0.00,weatherlink.com 1.10,2013-01-16 10:49:00,
2013-01-16 03:04:00,35.9,16.0,30.56,SSE,167,0.0,4.0,44,0.00,,,0.00,weatherlink.com 1.10,2013-01-16 11:04:00,
2013-01-16 03:19:00,36.5,16.0,30.55,SE,146,2.0,5.0,43,0.00,,,0.00,weatherlink.com 1.10,2013-01-16 11:19:00,
2013-01-16 03:34:00,37.0,15.0,30.55,SE,146,1.0,5.0,41,0.00,,,0.00,weatherlink.com 1.10,2013-01-16 11:34:00,
2013-01-16 03:49:00,36.7,15.0,30.54,SE,129,1.0,4.0,41,0.00,,,0.00,weatherlink.com 1.10,2013-01-16 11:49:00,
2013-01-16 04:04:00,37.9,14.0,30.54,ESE,102,2.0,5.0,38,0.00,,,0.00,weatherlink.com 1.10,2013-01-16 12:04:00,
2013-01-16 04:19:00,37.6,14.0,30.53,SE,138,3.0,5.0,38,0.00,,,0.00,weatherlink.com 1.10,2013-01-16 12:19:00,
2013-01-16 04:34:00,37.3,14.0,30.53,ESE,120,3.0,5.0,39,0.00,,,0.00,weatherlink.com 1.10,2013-01-16 12:34:00,
2013-01-16 04:49:00,37.7,15.0,30.53,SE,141,3.0,6.0,39,0.00,,,0.00,weatherlink.com 1.10,2013-01-16 12:49:00,
2013-01-16 05:04:00,37.8,13.0,30.52,SE,132,3.0,5.0,36,0.00,,,0.00,weatherlink.com 1.10,2013-01-16 13:04:00,
2013-01-16 05:19:00,38.2,13.0,30.51,SSE,150,2.0,6.0,36,0.00,,,0.00,weatherlink.com 1.10,2013-01-16 13:19:00,
2013-01-16 05:34:00,37.9,14.0,30.51,ESE,103,2.0,5.0,37,0.00,,,0.00,weatherlink.com 1.10,2013-01-16 13:34:00,
2013-01-16 05:49:00,38.0,15.0,30.51,South,169,4.0,8.0,39,0.00,,,0.00,weatherlink.com 1.10,2013-01-16 13:49:00,
2013-01-16 06:04:00,36.4,13.0,30.52,SSE,152,2.0,3.0,39,0.00,,,0.00,weatherlink.com 1.10,2013-01-16 14:04:00,
2013-01-16 06:19:00,36.7,14.0,30.52,SSE,162,3.0,6.0,40,0.00,,,0.00,weatherlink.com 1.10,2013-01-16 14:19:00,
2013-01-16 06:34:00,36.9,15.0,30.52,SE,142,1.0,5.0,40,0.00,,,0.00,weatherlink.com 1.10,2013-01-16 14:34:00,
2013-01-16 06:49:00,36.9,15.0,30.52,SE,132,1.0,4.0,40,0.00,,,0.00,weatherlink.com 1.10,2013-01-16 14:49:00,
2013-01-16 07:04:00,38.2,13.0,30.51,East,79,2.0,3.0,36,0.00,,,0.00,weatherlink.com 1.10,2013-01-16 15:04:00,
2013-01-16 07:19:00,38.1,14.0,30.51,East,99,1.0,5.0,37,0.00,,,0.00,weatherlink.com 1.10,2013-01-16 15:19:00,
2013-01-16 07:35:00,38.4,13.0,30.52,SE,130,1.0,5.0,36,0.00,,,0.00,weatherlink.com 1.10,2013-01-16 15:35:00,
2013-01-16 07:50:00,38.9,13.0,30.52,SSE,151,1.0,7.0,35,0.00,,,0.00,weatherlink.com 1.10,2013-01-16 15:50:00,
2013-01-16 08:05:00,39.3,12.0,30.52,SE,124,2.0,4.0,33,0.00,,,0.00,weatherlink.com 1.10,2013-01-16 16:05:00,
2013-01-16 08:20:00,39.6,13.0,30.53,East,94,1.0,3.0,33,0.00,,,0.00,weatherlink.com 1.10,2013-01-16 16:20:00,
2013-01-16 08:35:00,40.3,12.0,30.53,SSE,150,0.0,7.0,32,0.00,,,0.00,weatherlink.com 1.10,2013-01-16 16:35:00,
2013-01-16 08:50:00,40.6,14.0,30.53,SE,146,1.0,3.0,34,0.00,,,0.00,weatherlink.com 1.10,2013-01-16 16:50:00,
2013-01-16 09:05:00,42.9,14.0,30.53,SE,124,2.0,5.0,31,0.00,,,0.00,weatherlink.com 1.10,2013-01-16 17:05:00,
2013-01-16 09:20:00,43.7,15.0,30.53,SSE,160,1.0,7.0,31,0.00,,,0.00,weatherlink.com 1.10,2013-01-16 17:20:00,
2013-01-16 09:35:00,44.8,15.0,30.52,ESE,108,7.0,7.0,30,0.00,,,0.00,weatherlink.com 1.10,2013-01-16 17:35:00,
2013-01-16 09:50:00,45.6,15.0,30.52,SSE,152,4.0,8.0,29,0.00,,,0.00,weatherlink.com 1.10,2013-01-16 17:50:00,
2013-01-16 10:05:00,47.4,14.0,30.51,SSE,159,4.0,8.0,26,0.00,,,0.00,weatherlink.com 1.10,2013-01-16 18:05:00,
2013-01-16 10:20:00,48.2,15.0,30.50,SE,142,3.0,6.0,27,0.00,,,0.00,weatherlink.com 1.10,2013-01-16 18:20:00,
2013-01-16 10:35:00,48.6,16.0,30.50,SE,135,2.0,7.0,27,0.00,,,0.00,weatherlink.com 1.10,2013-01-16 18:35:00,
2013-01-16 10:50:00,49.3,16.0,30.50,SSE,153,4.0,7.0,26,0.00,,,0.00,weatherlink.com 1.10,2013-01-16 18:50:00,
2013-01-16 11:05:00,49.4,16.0,30.49,South,170,4.0,7.0,26,0.00,,,0.00,weatherlink.com 1.10,2013-01-16 19:05:00,
2013-01-16 11:20:00,49.7,16.0,30.48,SSE,158,4.0,8.0,26,0.00,,,0.00,weatherlink.com 1.10,2013-01-16 19:20:00,
2013-01-16 11:35:00,50.1,17.0,30.47,South,169,6.0,8.0,27,0.00,,,0.00,weatherlink.com 1.10,2013-01-16 19:35:00,
2013-01-16 11:50:00,51.4,17.0,30.47,ESE,113,5.0,7.0,26,0.00,,,0.00,weatherlink.com 1.10,2013-01-16 19:50:00,
2013-01-16 12:05:00,51.4,19.0,30.46,SSE,152,4.0,7.0,28,0.00,,,0.00,weatherlink.com 1.10,2013-01-16 20:05:00,
2013-01-16 12:10:00,51.8,19.0,30.44,South,173,4.0,6.0,27,0.00,,,0.00,weatherlink.com 1.10,2013-01-16 20:10:00,
2013-01-16 12:22:00,51.9,18.0,30.44,SSE,149,5.0,8.0,26,0.00,,,0.00,weatherlink.com 1.10,2013-01-16 20:22:00,
2013-01-16 12:37:00,51.9,18.0,30.44,South,174,5.0,7.0,26,0.00,,,0.00,weatherlink.com 1.10,2013-01-16 20:37:00,
2013-01-16 12:52:00,52.2,18.0,30.43,SSE,162,4.0,8.0,26,0.00,,,0.00,weatherlink.com 1.10,2013-01-16 20:52:00,
2013-01-16 13:07:00,52.6,18.0,30.43,South,184,4.0,7.0,26,0.00,,,0.00,weatherlink.com 1.10,2013-01-16 21:07:00,
2013-01-16 13:22:00,53.0,19.0,30.43,South,175,4.0,6.0,26,0.00,,,0.00,weatherlink.com 1.10,2013-01-16 21:22:00,
2013-01-16 13:37:00,54.1,18.0,30.43,SSE,159,5.0,6.0,24,0.00,,,0.00,weatherlink.com 1.10,2013-01-16 21:37:00,
2013-01-16 13:52:00,55.0,18.0,30.43,SSE,156,2.0,5.0,23,0.00,,,0.00,weatherlink.com 1.10,2013-01-16 21:52:00,
2013-01-16 14:08:00,55.9,16.0,30.43,South,188,2.0,4.0,21,0.00,,,0.00,weatherlink.com 1.10,2013-01-16 22:08:00,
2013-01-16 14:23:00,55.8,16.0,30.43,SE,141,2.0,6.0,21,0.00,,,0.00,weatherlink.com 1.10,2013-01-16 22:23:00,
2013-01-16 14:38:00,55.7,17.0,30.43,SE,143,2.0,6.0,22,0.00,,,0.00,weatherlink.com 1.10,2013-01-16 22:38:00,
2013-01-16 14:53:00,56.3,17.0,30.43,SSE,157,2.0,5.0,21,0.00,,,0.00,weatherlink.com 1.10,2013-01-16 22:53:00,
2013-01-16 15:08:00,56.7,17.0,30.43,SSW,197,3.0,4.0,21,0.00,,,0.00,weatherlink.com 1.10,2013-01-16 23:08:00,
2013-01-16 15:23:00,56.1,19.0,30.43,South,169,3.0,5.0,23,0.00,,,0.00,weatherlink.com 1.10,2013-01-16 23:23:00,
2013-01-16 15:38:00,55.2,19.0,30.43,SSE,151,4.0,5.0,24,0.00,,,0.00,weatherlink.com 1.10,2013-01-16 23:38:00,
2013-01-16 15:53:00,54.9,19.0,30.43,SSE,160,3.0,5.0,24,0.00,,,0.00,weatherlink.com 1.10,2013-01-16 23:53:00,
2013-01-16 16:08:00,54.3,18.0,30.43,SE,146,2.0,4.0,24,0.00,,,0.00,weatherlink.com 1.10,2013-01-17 00:08:00,
2013-01-16 16:23:00,53.1,17.0,30.43,SE,124,1.0,3.0,24,0.00,,,0.00,weatherlink.com 1.10,2013-01-17 00:23:00,
2013-01-16 16:38:00,51.4,17.0,30.42,ESE,118,1.0,2.0,25,0.00,,,0.00,weatherlink.com 1.10,2013-01-17 00:38:00,
2013-01-16 16:53:00,50.4,14.0,30.42,ESE,105,1.0,2.0,23,0.00,,,0.00,weatherlink.com 1.10,2013-01-17 00:53:00,
2013-01-16 17:08:00,49.9,13.0,30.42,East,97,2.0,2.0,23,0.00,,,0.00,weatherlink.com 1.10,2013-01-17 01:08:00,
2013-01-16 17:23:00,50.0,12.0,30.42,ESE,114,2.0,2.0,22,0.00,,,0.00,weatherlink.com 1.10,2013-01-17 01:23:00,
2013-01-16 17:38:00,47.5,14.0,30.42,East,85,2.0,4.0,26,0.00,,,0.00,weatherlink.com 1.10,2013-01-17 01:38:00,
2013-01-16 17:53:00,45.1,14.0,30.42,East,101,3.0,4.0,28,0.00,,,0.00,weatherlink.com 1.10,2013-01-17 01:53:00,
2013-01-16 18:08:00,44.9,15.0,30.42,ESE,118,2.0,4.0,30,0.00,,,0.00,weatherlink.com 1.10,2013-01-17 02:08:00,
2013-01-16 18:23:00,44.6,15.0,30.42,East,93,1.0,3.0,30,0.00,,,0.00,weatherlink.com 1.10,2013-01-17 02:23:00,
2013-01-16 18:38:00,46.0,12.0,30.42,ENE,66,0.0,3.0,25,0.00,,,0.00,weatherlink.com 1.10,2013-01-17 02:38:00,
2013-01-16 18:53:00,48.9,11.0,30.42,East,79,0.0,1.0,22,0.00,,,0.00,weatherlink.com 1.10,2013-01-17 02:53:00,
2013-01-16 19:08:00,47.4,13.0,30.42,SE,134,2.0,3.0,25,0.00,,,0.00,weatherlink.com 1.10,2013-01-17 03:08:00,
2013-01-16 19:23:00,47.5,13.0,30.42,ESE,118,3.0,3.0,25,0.00,,,0.00,weatherlink.com 1.10,2013-01-17 03:23:00,
2013-01-16 19:38:00,47.1,13.0,30.42,ESE,123,1.0,3.0,25,0.00,,,0.00,weatherlink.com 1.10,2013-01-17 03:38:00,
2013-01-16 19:53:00,45.2,15.0,30.41,SE,137,4.0,4.0,29,0.00,,,0.00,weatherlink.com 1.10,2013-01-17 03:53:00,
2013-01-16 20:08:00,44.1,17.0,30.42,SSE,153,1.0,3.0,34,0.00,,,0.00,weatherlink.com 1.10,2013-01-17 04:08:00,
2013-01-16 20:23:00,43.2,17.0,30.42,SSE,148,1.0,3.0,35,0.00,,,0.00,weatherlink.com 1.10,2013-01-17 04:23:00,
2013-01-16 20:38:00,42.9,17.0,30.42,SE,145,3.0,4.0,36,0.00,,,0.00,weatherlink.com 1.10,2013-01-17 04:38:00,
2013-01-16 20:53:00,42.1,17.0,30.41,SSE,150,1.0,3.0,36,0.00,,,0.00,weatherlink.com 1.10,2013-01-17 04:53:00,
2013-01-16 21:08:00,42.1,17.0,30.41,SE,135,0.0,3.0,36,0.00,,,0.00,weatherlink.com 1.10,2013-01-17 05:08:00,
2013-01-16 21:23:00,42.3,16.0,30.42,SE,146,0.0,4.0,35,0.00,,,0.00,weatherlink.com 1.10,2013-01-17 05:23:00,
2013-01-16 21:38:00,43.3,16.0,30.42,SSE,148,1.0,4.0,33,0.00,,,0.00,weatherlink.com 1.10,2013-01-17 05:38:00,
2013-01-16 21:53:00,43.9,15.0,30.41,SE,143,1.0,5.0,31,0.00,,,0.00,weatherlink.com 1.10,2013-01-17 05:53:00,
2013-01-16 22:08:00,44.7,14.0,30.41,ESE,121,1.0,6.0,29,0.00,,,0.00,weatherlink.com 1.10,2013-01-17 06:08:00,
2013-01-16 22:23:00,43.7,14.0,30.41,SSE,148,2.0,5.0,30,0.00,,,0.00,weatherlink.com 1.10,2013-01-17 06:23:00,
2013-01-16 22:38:00,43.7,13.0,30.41,SSE,150,4.0,7.0,29,0.00,,,0.00,weatherlink.com 1.10,2013-01-17 06:38:00,
2013-01-16 22:53:00,43.7,14.0,30.41,ESE,121,3.0,6.0,30,0.00,,,0.00,weatherlink.com 1.10,2013-01-17 06:53:00,
2013-01-16 23:08:00,43.2,14.0,30.41,SSE,152,4.0,6.0,30,0.00,,,0.00,weatherlink.com 1.10,2013-01-17 07:08:00,
2013-01-16 23:23:00,43.4,14.0,30.41,South,177,4.0,6.0,30,0.00,,,0.00,weatherlink.com 1.10,2013-01-17 07:23:00,
2013-01-16 23:38:00,43.6,15.0,30.41,SE,142,3.0,8.0,31,0.00,,,0.00,weatherlink.com 1.10,2013-01-17 07:38:00,
2013-01-16 23:53:00,42.8,14.0,30.41,SSE,148,2.0,6.0,31,0.00,,,0.00,weatherlink.com 1.10,2013-01-17 07:53:00,